createdAt,value
2019-01-09T00:01:23.585Z,99097.06
2019-01-09T00:03:55.220Z,99086.34
2019-01-09T00:06:25.693Z,99097.92
2019-01-09T00:09:34.452Z,99092.17
2019-01-09T00:12:04.798Z,99099.14
2019-01-09T00:14:35.114Z,99092.23
2019-01-09T00:17:05.468Z,99102.65
2019-01-09T00:19:36.259Z,99088.31
2019-01-09T00:22:08.651Z,99081.26
2019-01-09T00:24:38.950Z,99090.87
2019-01-09T00:27:09.362Z,99079.80
2019-01-09T00:29:39.799Z,99095.80
2019-01-09T00:32:11.520Z,99103.97
2019-01-09T00:34:41.940Z,99109.56
2019-01-09T00:37:12.237Z,99119.98
2019-01-09T00:39:48.081Z,99110.31
2019-01-09T00:42:18.487Z,99105.91
2019-01-09T00:44:49.438Z,99111.89
2019-01-09T00:47:20.086Z,99100.26
2019-01-09T00:49:50.437Z,99101.95
2019-01-09T00:52:20.857Z,99112.73
2019-01-09T00:54:52.819Z,99103.42
2019-01-09T00:57:23.278Z,99118.30
2019-01-09T00:59:53.545Z,99124.10
2019-01-09T01:03:29.401Z,99124.27
2019-01-09T01:06:27.754Z,99125.57
2019-01-09T01:09:39.701Z,99131.34
2019-01-09T01:12:43.141Z,99117.75
2019-01-09T01:16:23.727Z,99117.11
2019-01-09T01:19:12.238Z,99129.39
2019-01-09T01:21:54.106Z,99136.75
2019-01-09T01:29:09.182Z,99114.34
2019-01-09T01:31:59.379Z,99121.33
2019-01-09T01:35:25.495Z,99142.72
2019-01-09T01:38:31.974Z,99136.00
2019-01-09T01:41:26.349Z,99142.72
2019-01-09T01:44:06.142Z,99143.66
2019-01-09T01:47:28.709Z,99142.92
2019-01-09T01:50:33.218Z,99096.94
2019-01-09T01:53:18.783Z,99154.83
2019-01-09T01:56:35.613Z,99151.28
2019-01-09T01:59:20.427Z,99158.34
2019-01-09T02:02:26.600Z,99154.64
2019-01-09T02:05:07.631Z,99148.68
2019-01-09T02:08:12.519Z,99166.91
2019-01-09T02:11:25.771Z,99171.47
2019-01-09T02:14:33.995Z,99169.03
2019-01-09T02:17:46.862Z,99150.71
2019-01-09T02:20:46.694Z,99184.53
2019-01-09T02:23:43.166Z,99171.51
2019-01-09T02:26:56.983Z,99179.23
2019-01-09T02:30:02.661Z,99171.88
2019-01-09T02:32:33.615Z,99188.02
2019-01-09T02:35:03.928Z,99190.81
2019-01-09T02:37:34.295Z,99193.68
2019-01-09T02:40:04.615Z,99194.32
2019-01-09T02:42:35.600Z,99189.67
2019-01-09T02:45:06.477Z,99188.91
2019-01-09T02:47:36.846Z,99194.57
2019-01-09T02:50:08.300Z,99195.97
2019-01-09T02:52:39.021Z,99178.52
2019-01-09T02:55:09.794Z,99183.41
2019-01-09T02:57:40.076Z,99185.37
2019-01-09T03:00:13.755Z,99179.63
2019-01-09T03:02:44.092Z,99193.84
2019-01-09T03:05:14.846Z,99174.75
2019-01-09T03:07:45.156Z,99182.81
2019-01-09T03:10:15.523Z,99187.08
2019-01-09T03:12:46.427Z,99159.97
2019-01-09T03:15:16.792Z,99177.82
2019-01-09T03:17:47.526Z,99175.38
2019-01-09T03:20:17.853Z,99180.22
2019-01-09T03:22:48.782Z,99180.41
2019-01-09T03:25:19.194Z,99175.84
2019-01-09T03:27:50.029Z,99180.59
2019-01-09T03:30:20.723Z,99143.32
2019-01-09T03:32:51.212Z,99178.53
2019-01-09T03:35:21.618Z,99181.95
2019-01-09T03:37:52.004Z,99182.68
2019-01-09T03:40:22.313Z,99175.17
2019-01-09T03:42:52.699Z,99168.22
2019-01-09T03:45:23.078Z,99143.39
2019-01-09T03:47:54.015Z,99178.87
2019-01-09T03:50:24.303Z,99170.70
2019-01-09T03:52:54.727Z,99196.53
2019-01-09T03:55:25.021Z,99171.61
2019-01-09T03:57:55.383Z,99185.10
2019-01-09T04:00:28.526Z,99194.02
2019-01-09T04:02:58.940Z,99200.08
2019-01-09T04:05:29.262Z,99186.13
2019-01-09T04:07:59.537Z,99184.08
2019-01-09T04:10:29.986Z,99175.70
2019-01-09T04:13:00.350Z,99198.89
2019-01-09T04:15:31.189Z,99189.98
2019-01-09T04:18:01.598Z,99208.27
2019-01-09T04:20:31.961Z,99196.57
2019-01-09T04:23:02.530Z,99215.23
2019-01-09T04:25:33.030Z,99206.52
2019-01-09T04:28:03.338Z,99220.42
2019-01-09T04:30:33.759Z,99193.21
2019-01-09T04:33:04.639Z,99221.55
2019-01-09T04:35:35.012Z,99229.53
2019-01-09T04:38:05.286Z,99221.91
2019-01-09T04:40:37.398Z,99232.85
2019-01-09T04:43:07.684Z,99226.36
2019-01-09T04:45:38.162Z,99220.16
2019-01-09T04:48:08.494Z,99206.30
2019-01-09T04:50:38.808Z,99230.29
2019-01-09T04:53:09.488Z,99226.12
2019-01-09T04:55:39.817Z,99228.23
2019-01-09T04:58:10.544Z,99233.83
2019-01-09T05:00:40.838Z,99228.45
2019-01-09T05:03:11.692Z,99231.98
2019-01-09T05:05:42.569Z,99237.42
2019-01-09T05:08:12.882Z,99212.84
2019-01-09T05:10:44.718Z,99210.78
2019-01-09T05:13:15.576Z,99229.92
2019-01-09T05:16:07.230Z,99234.28
2019-01-09T05:18:38.110Z,99239.48
2019-01-09T05:21:08.448Z,99250.25
2019-01-09T05:23:39.671Z,99253.87
2019-01-09T05:26:10.071Z,99249.61
2019-01-09T05:28:40.949Z,99262.84
2019-01-09T05:31:11.370Z,99259.15
2019-01-09T05:33:41.767Z,99268.70
2019-01-09T05:36:12.116Z,99271.13
2019-01-09T05:38:42.502Z,99239.48
2019-01-09T05:41:12.805Z,99270.37
2019-01-09T05:43:46.198Z,99239.91
2019-01-09T05:46:16.516Z,99279.23
2019-01-09T05:48:46.961Z,99281.89
2019-01-09T05:51:17.397Z,99288.84
2019-01-09T05:53:47.744Z,99285.16
2019-01-09T05:56:18.154Z,99286.73
2019-01-09T05:58:50.178Z,99293.72
2019-01-09T06:01:20.645Z,99281.05
2019-01-09T06:03:50.951Z,99292.75
2019-01-09T06:06:22.024Z,99295.56
2019-01-09T06:08:53.879Z,99296.47
2019-01-09T06:11:24.948Z,99305.21
2019-01-09T06:13:55.339Z,99298.17
2019-01-09T06:16:25.662Z,99300.37
2019-01-09T06:18:56.092Z,99303.37
2019-01-09T06:21:26.433Z,99307.63
2019-01-09T06:23:57.251Z,99314.53
2019-01-09T06:26:27.655Z,99308.03
2019-01-09T06:28:58.134Z,99313.95
2019-01-09T06:31:28.561Z,99312.66
2019-01-09T06:33:58.918Z,99302.12
2019-01-09T06:36:29.253Z,99316.78
2019-01-09T06:38:59.644Z,99314.49
2019-01-09T06:41:29.924Z,99321.76
2019-01-09T06:44:00.854Z,99324.36
2019-01-09T06:46:31.164Z,99323.59
2019-01-09T06:49:05.170Z,99316.34
2019-01-09T06:51:35.577Z,99339.34
2019-01-09T06:54:05.977Z,99308.22
2019-01-09T06:56:36.439Z,99326.34
2019-01-09T06:59:06.750Z,99340.28
2019-01-09T07:01:37.127Z,99338.62
2019-01-09T07:04:07.488Z,99335.84
2019-01-09T07:06:37.916Z,99331.72
2019-01-09T07:09:08.473Z,99331.36
2019-01-09T07:11:40.770Z,99346.56
2019-01-09T07:14:11.635Z,99350.98
2019-01-09T07:16:42.116Z,99361.16
2019-01-09T07:19:12.445Z,99366.19
2019-01-09T07:21:45.660Z,99354.66
2019-01-09T07:24:15.670Z,99369.73
2019-01-09T07:26:47.525Z,99367.89
2019-01-09T07:29:17.936Z,99366.19
2019-01-09T07:31:48.256Z,99377.89
2019-01-09T07:34:20.002Z,99378.73
2019-01-09T07:36:50.317Z,99370.41
2019-01-09T07:39:20.663Z,99379.42
2019-01-09T07:41:56.866Z,99382.16
2019-01-09T07:44:27.435Z,99387.81
2019-01-09T07:47:00.533Z,99383.32
2019-01-09T07:49:51.312Z,99383.52
2019-01-09T07:52:21.850Z,99393.38
2019-01-09T07:54:54.752Z,99392.56
2019-01-09T07:57:25.268Z,99392.48
2019-01-09T07:59:58.527Z,99399.34
2019-01-09T08:02:28.966Z,99396.38
2019-01-09T08:04:59.256Z,99398.27
2019-01-09T08:07:29.705Z,99402.53
2019-01-09T08:10:00.336Z,99408.59
2019-01-09T08:12:30.891Z,99398.86
2019-01-09T08:15:01.368Z,99413.39
2019-01-09T08:17:31.780Z,99408.23
2019-01-09T08:20:02.186Z,99404.47
2019-01-09T08:22:32.542Z,99390.48
2019-01-09T08:25:03.021Z,99404.52
2019-01-09T08:27:33.290Z,99406.22
2019-01-09T08:30:03.684Z,99426.33
2019-01-09T08:32:37.467Z,99414.98
2019-01-09T08:35:09.266Z,99427.98
2019-01-09T08:37:39.656Z,99431.44
2019-01-09T08:40:11.291Z,99439.33
2019-01-09T08:42:41.628Z,99434.05
2019-01-09T08:45:11.988Z,99449.40
2019-01-09T08:47:42.293Z,99445.04
2019-01-09T08:50:13.175Z,99427.27
2019-01-09T08:52:43.512Z,99445.13
2019-01-09T08:55:13.873Z,99427.76
2019-01-09T08:57:45.047Z,99437.59
2019-01-09T09:00:16.846Z,99462.63
2019-01-09T09:02:47.163Z,99458.95
2019-01-09T09:05:17.504Z,99439.62
2019-01-09T09:07:50.630Z,99457.48
2019-01-09T09:10:21.013Z,99465.11
2019-01-09T09:12:52.024Z,99463.86
2019-01-09T09:15:23.480Z,99470.09
2019-01-09T09:17:57.059Z,99471.66
2019-01-09T09:20:27.644Z,99475.07
2019-01-09T09:22:58.101Z,99473.37
2019-01-09T09:25:29.840Z,99487.02
2019-01-09T09:28:02.846Z,99479.97
2019-01-09T09:30:33.470Z,99490.81
2019-01-09T09:33:03.783Z,99488.13
2019-01-09T09:35:43.606Z,99490.91
2019-01-09T09:38:20.468Z,99483.59
2019-01-09T09:40:46.225Z,99489.30
2019-01-09T09:43:17.712Z,99500.20
2019-01-09T09:45:48.094Z,99501.98
2019-01-09T09:48:18.692Z,99491.20
2019-01-09T09:50:49.274Z,99506.82
2019-01-09T09:53:20.251Z,99514.94
2019-01-09T09:55:53.000Z,99515.33
2019-01-09T09:58:25.397Z,99513.35
2019-01-09T10:00:56.098Z,99506.99
2019-01-09T10:03:26.863Z,99515.78
2019-01-09T10:05:57.343Z,99528.20
2019-01-09T10:08:29.502Z,99502.09
2019-01-09T10:11:00.198Z,99525.69
2019-01-09T10:13:31.633Z,99523.67
2019-01-09T10:16:02.014Z,99540.22
2019-01-09T10:18:32.393Z,99547.55
2019-01-09T10:21:06.113Z,99546.73
2019-01-09T10:23:41.314Z,99523.23
2019-01-09T10:26:11.738Z,99494.12
2019-01-09T10:28:43.225Z,99537.73
2019-01-09T10:31:13.784Z,99532.31
2019-01-09T10:33:44.166Z,99529.77
2019-01-09T10:36:14.668Z,99527.92
2019-01-09T10:38:45.111Z,99527.16
2019-01-09T10:41:15.489Z,99538.79
2019-01-09T10:43:45.820Z,99542.33
2019-01-09T10:46:16.241Z,99538.11
2019-01-09T10:48:46.528Z,99534.27
2019-01-09T10:51:16.910Z,99536.47
2019-01-09T10:53:47.195Z,99548.41
2019-01-09T10:56:17.936Z,99538.17
2019-01-09T10:58:48.232Z,99541.56
2019-01-09T11:01:22.575Z,99543.57
2019-01-09T11:03:52.885Z,99530.95
2019-01-09T11:06:23.298Z,99531.23
2019-01-09T11:08:53.927Z,99541.25
2019-01-09T11:11:24.349Z,99536.81
2019-01-09T11:13:57.123Z,99524.56
2019-01-09T11:16:27.743Z,99536.44
2019-01-09T11:18:58.380Z,99520.59
2019-01-09T11:21:28.783Z,99534.74
2019-01-09T11:23:59.266Z,99541.30
2019-01-09T11:26:31.192Z,99542.84
2019-01-09T11:29:01.475Z,99539.44
2019-01-09T11:31:32.266Z,99549.48
2019-01-09T11:34:03.450Z,99507.11
2019-01-09T11:36:36.365Z,99543.68
2019-01-09T11:39:10.113Z,99538.81
2019-01-09T11:41:40.512Z,99546.16
2019-01-09T11:44:10.901Z,99540.59
2019-01-09T11:46:41.279Z,99547.18
2019-01-09T11:49:12.429Z,99540.95
2019-01-09T11:51:42.830Z,99519.47
2019-01-09T11:54:13.222Z,99554.73
2019-01-09T11:56:43.540Z,99549.02
2019-01-09T11:59:13.994Z,99558.91
2019-01-09T12:01:44.282Z,99557.91
2019-01-09T12:04:14.663Z,99557.83
2019-01-09T12:06:45.352Z,99565.64
2019-01-09T12:09:15.759Z,99558.16
2019-01-09T12:11:46.042Z,99565.81
2019-01-09T12:14:17.000Z,99573.86
2019-01-09T12:16:47.354Z,99573.09
2019-01-09T12:19:18.039Z,99584.95
2019-01-09T12:21:48.337Z,99574.14
2019-01-09T12:24:18.728Z,99575.45
2019-01-09T12:26:50.831Z,99573.98
2019-01-09T12:29:21.786Z,99586.53
2019-01-09T12:31:52.065Z,99589.66
2019-01-09T12:34:22.945Z,99576.50
2019-01-09T12:36:53.402Z,99598.48
2019-01-09T12:39:24.465Z,99578.98
2019-01-09T12:41:54.825Z,99610.70
2019-01-09T12:44:25.621Z,99616.44
2019-01-09T12:46:56.798Z,99616.44
2019-01-09T12:49:32.146Z,99620.70
2019-01-09T12:52:02.640Z,99626.55
2019-01-09T12:54:33.105Z,99626.30
2019-01-09T12:57:21.547Z,99629.28
2019-01-09T12:59:51.948Z,99630.37
2019-01-09T13:02:22.289Z,99635.56
2019-01-09T13:04:54.846Z,99645.72
2019-01-09T13:07:25.140Z,99642.19
2019-01-09T13:09:56.922Z,99651.24
2019-01-09T13:12:27.322Z,99650.06
2019-01-09T13:14:58.209Z,99659.48
2019-01-09T13:17:28.566Z,99656.89
2019-01-09T13:19:58.981Z,99663.23
2019-01-09T13:22:29.296Z,99663.08
2019-01-09T13:24:59.660Z,99662.19
2019-01-09T13:27:30.041Z,99665.68
2019-01-09T13:30:00.485Z,99673.56
2019-01-09T13:32:31.455Z,99678.68
2019-01-09T13:35:02.162Z,99676.08
2019-01-09T13:37:32.533Z,99676.56
2019-01-09T13:40:03.158Z,99685.06
2019-01-09T13:42:33.474Z,99683.89
2019-01-09T13:45:04.033Z,99688.48
2019-01-09T13:47:34.326Z,99689.23
2019-01-09T13:50:05.126Z,99694.38
2019-01-09T13:52:35.434Z,99690.81
2019-01-09T13:55:06.862Z,99691.49
2019-01-09T13:57:37.721Z,99700.53
2019-01-09T14:00:11.215Z,99701.55
2019-01-09T14:02:41.530Z,99707.48
2019-01-09T14:05:12.063Z,99709.31
2019-01-09T14:07:42.800Z,99720.31
2019-01-09T14:10:15.700Z,99715.19
2019-01-09T14:12:48.885Z,99718.27
2019-01-09T14:15:20.620Z,99718.27
2019-01-09T14:17:50.978Z,99731.26
2019-01-09T14:20:21.441Z,99726.87
2019-01-09T14:22:51.843Z,99725.89
2019-01-09T14:25:22.127Z,99735.98
2019-01-09T14:27:52.880Z,99740.03
2019-01-09T14:30:32.363Z,99739.51
2019-01-09T14:33:03.294Z,99740.48
2019-01-09T14:35:33.739Z,99734.84
2019-01-09T14:38:04.088Z,99755.48
2019-01-09T14:40:34.515Z,99751.73
2019-01-09T14:43:04.841Z,99758.77
2019-01-09T14:45:35.624Z,99765.11
2019-01-09T14:48:06.017Z,99762.51
2019-01-09T14:50:37.077Z,99773.59
2019-01-09T14:53:07.464Z,99772.17
2019-01-09T14:55:37.914Z,99775.30
2019-01-09T14:58:08.369Z,99782.86
2019-01-09T15:00:38.692Z,99782.42
2019-01-09T15:03:09.074Z,99792.38
2019-01-09T15:05:39.438Z,99787.17
2019-01-09T15:08:10.333Z,99800.70
2019-01-09T15:10:40.758Z,99795.57
2019-01-09T15:13:11.254Z,99808.42
2019-01-09T15:15:41.567Z,99789.99
2019-01-09T15:18:11.853Z,99815.18
2019-01-09T15:20:43.283Z,99816.48
2019-01-09T15:23:13.578Z,99818.52
2019-01-09T15:25:43.945Z,99818.41
2019-01-09T15:28:14.779Z,99820.86
2019-01-09T15:31:06.642Z,99821.48
2019-01-09T15:33:36.951Z,99825.75
2019-01-09T15:36:07.489Z,99833.03
2019-01-09T15:38:37.858Z,99835.52
2019-01-09T15:41:09.482Z,99829.76
2019-01-09T15:43:40.817Z,99840.94
2019-01-09T15:46:11.204Z,99845.78
2019-01-09T15:48:41.672Z,99844.84
2019-01-09T15:51:12.072Z,99832.24
2019-01-09T15:53:44.293Z,99850.23
2019-01-09T15:56:15.619Z,99842.80
2019-01-09T15:58:46.184Z,99852.75
2019-01-09T16:01:16.818Z,99869.59
2019-01-09T16:03:47.855Z,99862.11
2019-01-09T16:06:18.634Z,99846.42
2019-01-09T16:08:51.424Z,99862.41
2019-01-09T16:11:21.927Z,99860.14
2019-01-09T16:13:52.295Z,99876.64
2019-01-09T16:16:22.970Z,99877.65
2019-01-09T16:18:53.469Z,99870.70
2019-01-09T16:21:27.034Z,99879.40
2019-01-09T16:23:57.534Z,99885.13
2019-01-09T16:26:27.893Z,99887.73
2019-01-09T16:28:58.735Z,99876.02
2019-01-09T16:31:35.638Z,99891.27
2019-01-09T16:34:06.360Z,99884.38
2019-01-09T16:36:37.266Z,99901.04
2019-01-09T16:39:11.649Z,99893.38
2019-01-09T16:41:45.939Z,99883.72
2019-01-09T16:44:16.327Z,99900.78
2019-01-09T16:47:36.251Z,99903.38
2019-01-09T16:50:07.931Z,99907.52
2019-01-09T16:52:38.435Z,99913.86
2019-01-09T16:55:10.545Z,99922.67
2019-01-09T16:57:41.955Z,99916.84
2019-01-09T17:00:20.426Z,99909.92
2019-01-09T17:02:50.864Z,99907.55
2019-01-09T17:05:22.046Z,99910.41
2019-01-09T17:07:52.769Z,99919.73
2019-01-09T17:10:31.925Z,99930.25
2019-01-09T17:12:55.582Z,99928.80
2019-01-09T17:15:25.974Z,99938.16
2019-01-09T17:17:56.270Z,99925.48
2019-01-09T17:20:26.818Z,99927.43
2019-01-09T17:22:59.582Z,99937.84
2019-01-09T17:25:29.936Z,99950.85
2019-01-09T17:28:00.207Z,99944.86
2019-01-09T17:30:32.416Z,99944.12
2019-01-09T17:33:04.504Z,99950.14
2019-01-09T17:35:35.762Z,99957.88
2019-01-09T17:38:09.613Z,99947.54
2019-01-09T17:40:42.089Z,99968.43
2019-01-09T17:43:12.473Z,99971.70
2019-01-09T17:45:42.880Z,99974.03
2019-01-09T17:48:13.190Z,99979.23
2019-01-09T17:50:43.738Z,99993.69
2019-01-09T17:53:14.277Z,99966.38
2019-01-09T17:55:45.589Z,99986.47
2019-01-09T17:58:16.691Z,99992.24
2019-01-09T18:00:47.559Z,99997.45
2019-01-09T18:03:17.955Z,100000.19
2019-01-09T18:05:48.309Z,100004.88
2019-01-09T18:08:18.665Z,100006.03
2019-01-09T18:10:50.506Z,100004.07
2019-01-09T18:13:21.101Z,100011.13
2019-01-09T18:15:51.400Z,100007.67
2019-01-09T18:18:22.367Z,100018.22
2019-01-09T18:20:52.795Z,100013.02
2019-01-09T18:23:23.520Z,100027.13
2019-01-09T18:25:53.954Z,100019.43
2019-01-09T18:28:24.350Z,100005.53
2019-01-09T18:31:25.844Z,100033.63
2019-01-09T18:34:40.651Z,100028.80
2019-01-09T18:38:00.623Z,100033.22
2019-01-09T18:40:59.295Z,100042.02
2019-01-09T18:43:53.701Z,100048.19
2019-01-09T18:47:09.923Z,100056.27
2019-01-09T18:50:28.834Z,100059.89
2019-01-09T18:53:10.662Z,100057.22
2019-01-09T18:55:41.039Z,100052.95
2019-01-09T18:58:11.904Z,100059.52
2019-01-09T19:00:47.338Z,100062.56
2019-01-09T19:03:24.208Z,100066.84
2019-01-09T19:05:54.716Z,100066.66
2019-01-09T19:08:25.185Z,100077.14
2019-01-09T19:10:56.067Z,100071.39
2019-01-09T19:13:26.575Z,100095.52
2019-01-09T19:15:56.976Z,100085.11
2019-01-09T19:18:27.305Z,100087.34
2019-01-09T19:21:27.272Z,100088.13
2019-01-09T19:23:57.616Z,100097.22
2019-01-09T19:26:28.610Z,100096.78
2019-01-09T19:29:01.105Z,100100.27
2019-01-09T19:31:31.474Z,100116.59
2019-01-09T19:34:01.887Z,100120.50
2019-01-09T19:36:32.264Z,100124.27
2019-01-09T19:39:02.888Z,100122.52
2019-01-09T19:41:33.747Z,100124.16
2019-01-09T19:44:04.213Z,100135.32
2019-01-09T19:46:34.555Z,100141.45
2019-01-09T19:49:05.850Z,100147.95
2019-01-09T19:51:36.451Z,100149.32
2019-01-09T19:54:07.197Z,100155.95
2019-01-09T19:56:37.990Z,100158.02
2019-01-09T19:59:08.476Z,100156.20
2019-01-09T20:01:38.795Z,100161.03
2019-01-09T20:04:09.194Z,100159.22
2019-01-09T20:06:39.518Z,100162.64
2019-01-09T20:09:10.391Z,100165.23
2019-01-09T20:11:40.924Z,100177.36
2019-01-09T20:14:11.815Z,100170.78
2019-01-09T20:16:42.261Z,100181.64
2019-01-09T20:19:12.726Z,100161.61
2019-01-09T20:21:43.438Z,100159.42
2019-01-09T20:24:13.776Z,100191.73
2019-01-09T20:26:44.701Z,100187.35
2019-01-09T20:29:22.038Z,100192.69
2019-01-09T20:31:53.099Z,100191.83
2019-01-09T20:34:25.929Z,100200.64
2019-01-09T20:37:00.610Z,100201.56
2019-01-09T20:39:31.582Z,100209.30
2019-01-09T20:42:02.730Z,100215.80
2019-01-09T20:44:33.106Z,100210.53
2019-01-09T20:47:03.555Z,100219.58
2019-01-09T20:49:34.256Z,100219.38
2019-01-09T20:52:09.926Z,100225.88
2019-01-09T20:54:40.694Z,100227.52
2019-01-09T20:57:13.268Z,100238.28
2019-01-09T20:59:46.831Z,100235.98
2019-01-09T21:02:19.687Z,100231.23
2019-01-09T21:04:50.151Z,100243.34
2019-01-09T21:07:20.881Z,100249.34
2019-01-09T21:09:51.247Z,100242.57
2019-01-09T21:12:21.609Z,100259.75
2019-01-09T21:14:52.217Z,100251.41
2019-01-09T21:17:22.538Z,100258.90
2019-01-09T21:19:53.509Z,100267.43
2019-01-09T21:22:23.831Z,100265.84
2019-01-09T21:24:55.108Z,100274.00
2019-01-09T21:27:25.419Z,100274.06
2019-01-09T21:29:56.930Z,100261.78
2019-01-09T21:32:27.261Z,100269.11
2019-01-09T21:34:57.819Z,100265.99
2019-01-09T21:37:28.308Z,100272.05
2019-01-09T21:39:58.731Z,100275.77
2019-01-09T21:42:29.626Z,100279.16
2019-01-09T21:45:00.160Z,100278.64
2019-01-09T21:47:30.780Z,100281.63
2019-01-09T21:50:01.624Z,100282.41
2019-01-09T21:52:32.173Z,100287.97
2019-01-09T21:55:03.138Z,100289.20
2019-01-09T21:57:33.570Z,100288.69
2019-01-09T22:00:05.858Z,100296.02
2019-01-09T22:02:36.762Z,100297.08
2019-01-09T22:05:07.636Z,100294.14
2019-01-09T22:07:38.021Z,100303.66
2019-01-09T22:10:15.044Z,100306.71
2019-01-09T22:12:46.036Z,100305.75
2019-01-09T22:15:17.145Z,100311.34
2019-01-09T22:17:47.526Z,100318.27
2019-01-09T22:20:20.759Z,100316.03
2019-01-09T22:22:51.786Z,100327.41
2019-01-09T22:25:22.151Z,100326.69
2019-01-09T22:27:52.640Z,100332.44
2019-01-09T22:30:25.592Z,100335.42
2019-01-09T22:32:56.764Z,100341.27
2019-01-09T22:35:27.334Z,100331.05
2019-01-09T22:37:57.829Z,100338.80
2019-01-09T22:40:30.360Z,100335.04
2019-01-09T22:43:01.164Z,100340.98
2019-01-09T22:45:32.028Z,100317.39
2019-01-09T22:48:09.838Z,100339.52
2019-01-09T22:50:45.830Z,100343.09
2019-01-09T22:53:18.499Z,100339.84
2019-01-09T22:55:49.550Z,100336.72
2019-01-09T22:58:19.960Z,100344.25
2019-01-09T23:01:03.709Z,100338.68
2019-01-09T23:03:36.760Z,100341.94
2019-01-09T23:06:08.758Z,100351.12
2019-01-09T23:08:39.801Z,100355.82
2019-01-09T23:11:57.602Z,100361.75
2019-01-09T23:14:28.069Z,100358.48
2019-01-09T23:16:59.478Z,100358.36
2019-01-09T23:19:29.846Z,100366.55
2019-01-09T23:22:00.263Z,100364.29
2019-01-09T23:24:30.644Z,100376.39
2019-01-09T23:27:01.149Z,100374.51
2019-01-09T23:29:31.564Z,100373.62
2019-01-09T23:32:01.993Z,100376.88
2019-01-09T23:34:32.578Z,100379.77
2019-01-09T23:37:03.046Z,100393.17
2019-01-09T23:39:33.473Z,100380.48
2019-01-09T23:42:03.874Z,100386.42
2019-01-09T23:44:34.300Z,100394.23
2019-01-09T23:47:04.694Z,100404.25
2019-01-09T23:49:35.554Z,100402.81
2019-01-09T23:52:06.046Z,100405.83
2019-01-09T23:54:36.541Z,100411.04
2019-01-09T23:57:06.941Z,100406.72
2019-01-09T23:59:37.622Z,100403.73
